sensor_id;sensor_type;location;lat;lon;timestamp;temperature;humidity
28845;DHT22;15976;47.938;7.758;2024-03-23T00:52:43;16.20;53.20
28845;DHT22;15976;47.938;7.758;2024-03-23T00:55:11;16.20;53.20
28845;DHT22;15976;47.938;7.758;2024-03-23T00:57:37;16.20;53.20
28845;DHT22;15976;47.938;7.758;2024-03-23T01:00:05;16.10;53.20
28845;DHT22;15976;47.938;7.758;2024-03-23T01:02:32;16.10;53.30
28845;DHT22;15976;47.938;7.758;2024-03-23T01:04:58;16.00;53.30
28845;DHT22;15976;47.938;7.758;2024-03-23T01:07:24;16.00;53.30
28845;DHT22;15976;47.938;7.758;2024-03-23T01:09:50;16.00;53.40
28845;DHT22;15976;47.938;7.758;2024-03-23T01:12:18;15.90;53.40
28845;DHT22;15976;47.938;7.758;2024-03-23T01:14:44;15.90;53.50
28845;DHT22;15976;47.938;7.758;2024-03-23T01:17:09;15.90;53.60
28845;DHT22;15976;47.938;7.758;2024-03-23T01:19:36;16.00;53.70
28845;DHT22;15976;47.938;7.758;2024-03-23T01:22:02;15.90;53.80
28845;DHT22;15976;47.938;7.758;2024-03-23T01:24:27;15.90;53.90
28845;DHT22;15976;47.938;7.758;2024-03-23T01:26:53;15.80;53.90
28845;DHT22;15976;47.938;7.758;2024-03-23T01:29:19;15.80;54.10
28845;DHT22;15976;47.938;7.758;2024-03-23T01:31:45;15.80;54.20
28845;DHT22;15976;47.938;7.758;2024-03-23T01:34:11;15.90;54.30
28845;DHT22;15976;47.938;7.758;2024-03-23T01:36:38;15.90;54.30
28845;DHT22;15976;47.938;7.758;2024-03-23T01:39:05;16.00;54.30
28845;DHT22;15976;47.938;7.758;2024-03-23T01:41:31;16.00;54.30
28845;DHT22;15976;47.938;7.758;2024-03-23T01:43:57;16.00;54.30
28845;DHT22;15976;47.938;7.758;2024-03-23T01:46:23;15.90;54.30
28845;DHT22;15976;47.938;7.758;2024-03-23T01:48:49;15.90;54.50
28845;DHT22;15976;47.938;7.758;2024-03-23T01:51:16;15.90;54.60
28845;DHT22;15976;47.938;7.758;2024-03-23T01:53:42;15.90;54.80
28845;DHT22;15976;47.938;7.758;2024-03-23T01:56:08;15.90;54.90
28845;DHT22;15976;47.938;7.758;2024-03-23T01:58:34;15.80;54.90
28845;DHT22;15976;47.938;7.758;2024-03-23T02:01:00;15.80;55.10
28845;DHT22;15976;47.938;7.758;2024-03-23T02:03:27;15.80;55.10
28845;DHT22;15976;47.938;7.758;2024-03-23T02:05:54;15.80;55.10
28845;DHT22;15976;47.938;7.758;2024-03-23T02:08:23;15.80;55.10
28845;DHT22;15976;47.938;7.758;2024-03-23T02:10:50;15.80;55.10
28845;DHT22;15976;47.938;7.758;2024-03-23T02:13:17;15.80;55.20
28845;DHT22;15976;47.938;7.758;2024-03-23T02:15:45;15.80;55.30
28845;DHT22;15976;47.938;7.758;2024-03-23T02:18:11;15.80;55.30
28845;DHT22;15976;47.938;7.758;2024-03-23T02:20:38;15.90;55.40
28845;DHT22;15976;47.938;7.758;2024-03-23T02:23:05;15.90;55.40
28845;DHT22;15976;47.938;7.758;2024-03-23T02:25:33;15.90;55.50
28845;DHT22;15976;47.938;7.758;2024-03-23T02:28:00;15.90;55.60
28845;DHT22;15976;47.938;7.758;2024-03-23T02:30:26;15.80;55.70
28845;DHT22;15976;47.938;7.758;2024-03-23T02:32:52;15.80;55.80
28845;DHT22;15976;47.938;7.758;2024-03-23T02:35:18;15.80;55.90
28845;DHT22;15976;47.938;7.758;2024-03-23T02:37:46;15.80;56.50
28845;DHT22;15976;47.938;7.758;2024-03-23T02:40:14;15.70;56.00
28845;DHT22;15976;47.938;7.758;2024-03-23T02:42:41;15.60;56.20
28845;DHT22;15976;47.938;7.758;2024-03-23T02:45:07;15.60;56.20
28845;DHT22;15976;47.938;7.758;2024-03-23T02:47:37;15.60;56.40
28845;DHT22;15976;47.938;7.758;2024-03-23T02:50:04;15.60;56.50
28845;DHT22;15976;47.938;7.758;2024-03-23T02:52:31;15.50;56.50
28845;DHT22;15976;47.938;7.758;2024-03-23T02:54:57;15.50;56.60
28845;DHT22;15976;47.938;7.758;2024-03-23T02:57:23;15.40;56.80
28845;DHT22;15976;47.938;7.758;2024-03-23T02:59:50;15.40;57.10
28845;DHT22;15976;47.938;7.758;2024-03-23T03:02:16;15.30;57.30
28845;DHT22;15976;47.938;7.758;2024-03-23T03:04:42;15.30;57.40
28845;DHT22;15976;47.938;7.758;2024-03-23T03:07:08;15.30;57.70
28845;DHT22;15976;47.938;7.758;2024-03-23T03:09:34;15.30;57.80
28845;DHT22;15976;47.938;7.758;2024-03-23T03:12:05;15.20;57.90
28845;DHT22;15976;47.938;7.758;2024-03-23T03:14:30;15.10;58.10
28845;DHT22;15976;47.938;7.758;2024-03-23T03:16:56;15.20;58.30
28845;DHT22;15976;47.938;7.758;2024-03-23T03:19:22;15.10;58.40
28845;DHT22;15976;47.938;7.758;2024-03-23T03:21:48;15.10;58.40
28845;DHT22;15976;47.938;7.758;2024-03-23T03:24:15;15.10;58.50
28845;DHT22;15976;47.938;7.758;2024-03-23T03:26:41;15.10;58.50
28845;DHT22;15976;47.938;7.758;2024-03-23T03:29:07;15.20;58.50
28845;DHT22;15976;47.938;7.758;2024-03-23T03:31:33;15.20;58.40
28845;DHT22;15976;47.938;7.758;2024-03-23T03:33:59;15.30;58.50
28845;DHT22;15976;47.938;7.758;2024-03-23T03:36:25;15.30;58.40
28845;DHT22;15976;47.938;7.758;2024-03-23T03:38:51;15.40;58.30
28845;DHT22;15976;47.938;7.758;2024-03-23T03:41:18;15.40;58.40
28845;DHT22;15976;47.938;7.758;2024-03-23T03:43:44;15.40;59.00
28845;DHT22;15976;47.938;7.758;2024-03-23T03:46:10;15.30;59.30
28845;DHT22;15976;47.938;7.758;2024-03-23T03:48:37;15.30;59.30
28845;DHT22;15976;47.938;7.758;2024-03-23T03:51:04;15.20;59.40
28845;DHT22;15976;47.938;7.758;2024-03-23T03:53:30;15.20;59.80
28845;DHT22;15976;47.938;7.758;2024-03-23T03:56:00;15.10;60.40
28845;DHT22;15976;47.938;7.758;2024-03-23T03:58:26;15.00;61.10
28845;DHT22;15976;47.938;7.758;2024-03-23T04:00:52;15.00;61.50
28845;DHT22;15976;47.938;7.758;2024-03-23T04:03:18;15.00;61.60
28845;DHT22;15976;47.938;7.758;2024-03-23T04:05:53;15.00;61.60
28845;DHT22;15976;47.938;7.758;2024-03-23T04:08:21;15.00;61.40
28845;DHT22;15976;47.938;7.758;2024-03-23T04:10:47;15.10;61.20
28845;DHT22;15976;47.938;7.758;2024-03-23T04:13:13;15.10;61.00
28845;DHT22;15976;47.938;7.758;2024-03-23T04:15:40;15.10;60.90
28845;DHT22;15976;47.938;7.758;2024-03-23T04:18:06;15.00;62.70
28845;DHT22;15976;47.938;7.758;2024-03-23T04:20:32;14.60;65.80
28845;DHT22;15976;47.938;7.758;2024-03-23T04:23:00;14.30;67.70
28845;DHT22;15976;47.938;7.758;2024-03-23T04:25:26;14.10;69.00
28845;DHT22;15976;47.938;7.758;2024-03-23T04:27:52;13.90;69.80
28845;DHT22;15976;47.938;7.758;2024-03-23T04:30:18;13.80;70.50
28845;DHT22;15976;47.938;7.758;2024-03-23T04:32:46;13.70;70.70
28845;DHT22;15976;47.938;7.758;2024-03-23T04:35:11;13.70;71.10
28845;DHT22;15976;47.938;7.758;2024-03-23T04:37:39;13.70;71.20
28845;DHT22;15976;47.938;7.758;2024-03-23T04:40:08;13.70;71.10
28845;DHT22;15976;47.938;7.758;2024-03-23T04:42:34;13.70;71.10
28845;DHT22;15976;47.938;7.758;2024-03-23T04:45:00;13.70;71.00
28845;DHT22;15976;47.938;7.758;2024-03-23T04:47:26;13.70;70.80
28845;DHT22;15976;47.938;7.758;2024-03-23T04:49:52;13.60;72.30
28845;DHT22;15976;47.938;7.758;2024-03-23T04:52:18;13.30;73.60
28845;DHT22;15976;47.938;7.758;2024-03-23T04:54:45;13.10;74.30
28845;DHT22;15976;47.938;7.758;2024-03-23T04:57:14;13.10;75.00
28845;DHT22;15976;47.938;7.758;2024-03-23T04:59:46;13.10;75.10
28845;DHT22;15976;47.938;7.758;2024-03-23T05:02:13;13.00;75.30
28845;DHT22;15976;47.938;7.758;2024-03-23T05:04:41;13.00;75.70
28845;DHT22;15976;47.938;7.758;2024-03-23T05:07:07;13.00;75.80
28845;DHT22;15976;47.938;7.758;2024-03-23T05:09:33;13.00;75.90
28845;DHT22;15976;47.938;7.758;2024-03-23T05:11:59;13.00;75.90
28845;DHT22;15976;47.938;7.758;2024-03-23T05:14:28;13.00;75.90
28845;DHT22;15976;47.938;7.758;2024-03-23T05:16:55;13.10;76.00
28845;DHT22;15976;47.938;7.758;2024-03-23T05:19:21;13.00;75.80
28845;DHT22;15976;47.938;7.758;2024-03-23T05:21:48;13.00;75.70
28845;DHT22;15976;47.938;7.758;2024-03-23T05:24:14;13.10;75.80
28845;DHT22;15976;47.938;7.758;2024-03-23T05:26:40;13.00;75.80
28845;DHT22;15976;47.938;7.758;2024-03-23T05:29:06;13.10;75.80
28845;DHT22;15976;47.938;7.758;2024-03-23T05:31:36;13.10;75.70
28845;DHT22;15976;47.938;7.758;2024-03-23T05:34:03;13.10;75.50
28845;DHT22;15976;47.938;7.758;2024-03-23T05:36:30;13.20;75.30
28845;DHT22;15976;47.938;7.758;2024-03-23T05:38:56;13.20;75.00
28845;DHT22;15976;47.938;7.758;2024-03-23T05:41:23;13.30;74.50
28845;DHT22;15976;47.938;7.758;2024-03-23T05:43:50;13.40;74.10
28845;DHT22;15976;47.938;7.758;2024-03-23T05:46:16;13.40;73.60
28845;DHT22;15976;47.938;7.758;2024-03-23T05:48:42;13.50;73.50
28845;DHT22;15976;47.938;7.758;2024-03-23T05:51:08;13.60;73.10
28845;DHT22;15976;47.938;7.758;2024-03-23T05:53:34;13.50;72.60
28845;DHT22;15976;47.938;7.758;2024-03-23T05:56:02;13.50;72.30
28845;DHT22;15976;47.938;7.758;2024-03-23T05:58:31;13.60;71.60
28845;DHT22;15976;47.938;7.758;2024-03-23T06:01:01;13.60;70.90
28845;DHT22;15976;47.938;7.758;2024-03-23T06:03:29;13.60;70.50
28845;DHT22;15976;47.938;7.758;2024-03-23T06:05:56;13.60;70.20
28845;DHT22;15976;47.938;7.758;2024-03-23T06:08:23;13.60;69.90
28845;DHT22;15976;47.938;7.758;2024-03-23T06:10:50;13.50;69.60
28845;DHT22;15976;47.938;7.758;2024-03-23T06:13:16;13.60;69.60
28845;DHT22;15976;47.938;7.758;2024-03-23T06:15:43;13.60;69.60
28845;DHT22;15976;47.938;7.758;2024-03-23T06:18:09;13.50;69.20
28845;DHT22;15976;47.938;7.758;2024-03-23T06:20:35;13.50;67.10
28845;DHT22;15976;47.938;7.758;2024-03-23T06:23:01;13.30;65.50
28845;DHT22;15976;47.938;7.758;2024-03-23T06:25:30;13.20;64.90
28845;DHT22;15976;47.938;7.758;2024-03-23T06:27:56;13.10;65.20
28845;DHT22;15976;47.938;7.758;2024-03-23T06:30:24;13.00;65.10
28845;DHT22;15976;47.938;7.758;2024-03-23T06:32:50;13.10;65.10
28845;DHT22;15976;47.938;7.758;2024-03-23T06:35:16;13.00;65.00
28845;DHT22;15976;47.938;7.758;2024-03-23T06:37:42;13.00;64.60
28845;DHT22;15976;47.938;7.758;2024-03-23T06:40:08;12.80;65.20
28845;DHT22;15976;47.938;7.758;2024-03-23T06:42:36;12.80;66.20
28845;DHT22;15976;47.938;7.758;2024-03-23T06:45:03;12.70;66.30
28845;DHT22;15976;47.938;7.758;2024-03-23T06:47:32;12.80;66.80
28845;DHT22;15976;47.938;7.758;2024-03-23T06:49:59;12.70;66.40
28845;DHT22;15976;47.938;7.758;2024-03-23T06:52:29;12.70;65.60
28845;DHT22;15976;47.938;7.758;2024-03-23T06:54:55;12.70;65.30
28845;DHT22;15976;47.938;7.758;2024-03-23T06:57:23;12.60;65.40
28845;DHT22;15976;47.938;7.758;2024-03-23T06:59:49;12.60;65.40
28845;DHT22;15976;47.938;7.758;2024-03-23T07:02:15;12.60;65.00
28845;DHT22;15976;47.938;7.758;2024-03-23T07:04:42;12.60;64.60
28845;DHT22;15976;47.938;7.758;2024-03-23T07:07:08;12.60;64.70
28845;DHT22;15976;47.938;7.758;2024-03-23T07:09:35;12.60;64.50
28845;DHT22;15976;47.938;7.758;2024-03-23T07:12:03;12.50;63.90
28845;DHT22;15976;47.938;7.758;2024-03-23T07:14:29;12.50;63.70
28845;DHT22;15976;47.938;7.758;2024-03-23T07:16:55;12.60;63.50
28845;DHT22;15976;47.938;7.758;2024-03-23T07:19:22;12.50;63.10
28845;DHT22;15976;47.938;7.758;2024-03-23T07:21:49;12.50;62.80
28845;DHT22;15976;47.938;7.758;2024-03-23T07:24:15;12.50;62.70
28845;DHT22;15976;47.938;7.758;2024-03-23T07:26:41;12.50;62.40
28845;DHT22;15976;47.938;7.758;2024-03-23T07:29:08;12.60;62.40
28845;DHT22;15976;47.938;7.758;2024-03-23T07:31:33;12.50;61.70
28845;DHT22;15976;47.938;7.758;2024-03-23T07:34:00;12.50;61.40
28845;DHT22;15976;47.938;7.758;2024-03-23T07:36:26;12.50;61.40
28845;DHT22;15976;47.938;7.758;2024-03-23T07:38:52;12.50;60.90
28845;DHT22;15976;47.938;7.758;2024-03-23T07:41:20;12.50;60.60
28845;DHT22;15976;47.938;7.758;2024-03-23T07:43:47;12.50;60.50
28845;DHT22;15976;47.938;7.758;2024-03-23T07:46:15;12.50;60.30
28845;DHT22;15976;47.938;7.758;2024-03-23T07:48:43;12.40;59.70
28845;DHT22;15976;47.938;7.758;2024-03-23T07:51:18;12.40;59.50
28845;DHT22;15976;47.938;7.758;2024-03-23T07:53:45;12.30;59.30
28845;DHT22;15976;47.938;7.758;2024-03-23T07:56:18;12.30;59.20
28845;DHT22;15976;47.938;7.758;2024-03-23T07:58:45;12.30;59.00
28845;DHT22;15976;47.938;7.758;2024-03-23T08:01:15;12.30;58.60
28845;DHT22;15976;47.938;7.758;2024-03-23T08:03:45;12.40;58.00
28845;DHT22;15976;47.938;7.758;2024-03-23T08:06:13;12.40;58.00
28845;DHT22;15976;47.938;7.758;2024-03-23T08:08:41;12.40;58.20
28845;DHT22;15976;47.938;7.758;2024-03-23T08:11:08;12.40;58.40
28845;DHT22;15976;47.938;7.758;2024-03-23T08:13:35;12.50;58.40
28845;DHT22;15976;47.938;7.758;2024-03-23T08:16:02;12.50;58.20
28845;DHT22;15976;47.938;7.758;2024-03-23T08:18:30;12.60;58.30
28845;DHT22;15976;47.938;7.758;2024-03-23T08:23:27;12.90;57.40
28845;DHT22;15976;47.938;7.758;2024-03-23T08:26:00;13.00;57.10
28845;DHT22;15976;47.938;7.758;2024-03-23T08:28:29;13.30;56.50
28845;DHT22;15976;47.938;7.758;2024-03-23T08:30:56;13.50;55.80
28845;DHT22;15976;47.938;7.758;2024-03-23T08:33:23;13.50;55.20
28845;DHT22;15976;47.938;7.758;2024-03-23T08:36:00;13.30;55.10
28845;DHT22;15976;47.938;7.758;2024-03-23T08:38:27;13.20;55.30
28845;DHT22;15976;47.938;7.758;2024-03-23T08:41:03;13.20;55.50
28845;DHT22;15976;47.938;7.758;2024-03-23T08:43:33;13.10;55.50
28845;DHT22;15976;47.938;7.758;2024-03-23T08:46:12;13.10;55.30
28845;DHT22;15976;47.938;7.758;2024-03-23T08:48:45;13.10;54.80
28845;DHT22;15976;47.938;7.758;2024-03-23T08:51:16;13.00;54.30
28845;DHT22;15976;47.938;7.758;2024-03-23T08:53:43;13.00;54.30
28845;DHT22;15976;47.938;7.758;2024-03-23T08:56:09;12.90;54.30
28845;DHT22;15976;47.938;7.758;2024-03-23T08:58:39;12.90;54.40
28845;DHT22;15976;47.938;7.758;2024-03-23T09:01:12;12.90;54.00
28845;DHT22;15976;47.938;7.758;2024-03-23T09:03:41;12.90;54.00
28845;DHT22;15976;47.938;7.758;2024-03-23T09:06:09;12.80;53.80
28845;DHT22;15976;47.938;7.758;2024-03-23T09:08:38;12.80;54.10
28845;DHT22;15976;47.938;7.758;2024-03-23T09:11:09;12.80;54.40
28845;DHT22;15976;47.938;7.758;2024-03-23T09:13:37;13.00;54.70
28845;DHT22;15976;47.938;7.758;2024-03-23T09:16:04;13.20;54.30
28845;DHT22;15976;47.938;7.758;2024-03-23T09:18:35;13.30;53.30
28845;DHT22;15976;47.938;7.758;2024-03-23T09:21:11;13.40;53.00
28845;DHT22;15976;47.938;7.758;2024-03-23T09:23:39;13.60;52.80
28845;DHT22;15976;47.938;7.758;2024-03-23T09:26:05;13.80;52.40
28845;DHT22;15976;47.938;7.758;2024-03-23T09:28:33;14.00;51.60
28845;DHT22;15976;47.938;7.758;2024-03-23T09:31:07;14.20;51.20
28845;DHT22;15976;47.938;7.758;2024-03-23T09:33:34;14.30;50.90
28845;DHT22;15976;47.938;7.758;2024-03-23T09:36:04;14.30;50.80
28845;DHT22;15976;47.938;7.758;2024-03-23T09:38:30;14.30;50.60
28845;DHT22;15976;47.938;7.758;2024-03-23T09:40:57;14.40;50.70
28845;DHT22;15976;47.938;7.758;2024-03-23T09:43:23;14.40;50.40
28845;DHT22;15976;47.938;7.758;2024-03-23T09:45:50;14.50;50.10
28845;DHT22;15976;47.938;7.758;2024-03-23T09:48:16;14.50;49.60
28845;DHT22;15976;47.938;7.758;2024-03-23T09:50:44;14.30;49.60
28845;DHT22;15976;47.938;7.758;2024-03-23T09:53:12;14.30;50.10
28845;DHT22;15976;47.938;7.758;2024-03-23T09:55:41;14.30;50.40
28845;DHT22;15976;47.938;7.758;2024-03-23T09:58:12;14.40;50.30
28845;DHT22;15976;47.938;7.758;2024-03-23T10:00:38;14.40;49.80
28845;DHT22;15976;47.938;7.758;2024-03-23T10:03:05;14.50;49.30
28845;DHT22;15976;47.938;7.758;2024-03-23T10:05:32;14.40;49.00
28845;DHT22;15976;47.938;7.758;2024-03-23T10:10:41;14.10;48.90
28845;DHT22;15976;47.938;7.758;2024-03-23T10:13:10;14.00;48.90
28845;DHT22;15976;47.938;7.758;2024-03-23T10:15:38;13.80;48.80
28845;DHT22;15976;47.938;7.758;2024-03-23T10:18:25;13.50;47.80
28845;DHT22;15976;47.938;7.758;2024-03-23T10:21:10;13.30;48.30
28845;DHT22;15976;47.938;7.758;2024-03-23T10:23:41;13.00;49.30
28845;DHT22;15976;47.938;7.758;2024-03-23T10:26:16;12.80;50.30
28845;DHT22;15976;47.938;7.758;2024-03-23T10:28:52;12.60;50.60
28845;DHT22;15976;47.938;7.758;2024-03-23T10:31:19;12.60;50.40
28845;DHT22;15976;47.938;7.758;2024-03-23T10:33:51;12.60;50.40
28845;DHT22;15976;47.938;7.758;2024-03-23T10:36:21;12.60;50.40
28845;DHT22;15976;47.938;7.758;2024-03-23T10:38:50;12.60;50.20
28845;DHT22;15976;47.938;7.758;2024-03-23T10:41:17;12.60;50.80
28845;DHT22;15976;47.938;7.758;2024-03-23T10:43:47;12.40;51.10
28845;DHT22;15976;47.938;7.758;2024-03-23T10:46:14;12.20;52.80
28845;DHT22;15976;47.938;7.758;2024-03-23T10:48:41;12.00;54.70
28845;DHT22;15976;47.938;7.758;2024-03-23T10:51:10;11.70;56.20
28845;DHT22;15976;47.938;7.758;2024-03-23T10:53:36;11.50;57.60
28845;DHT22;15976;47.938;7.758;2024-03-23T10:56:04;11.30;58.80
28845;DHT22;15976;47.938;7.758;2024-03-23T10:58:42;11.10;59.30
28845;DHT22;15976;47.938;7.758;2024-03-23T11:01:15;11.00;60.00
28845;DHT22;15976;47.938;7.758;2024-03-23T11:03:45;11.10;60.90
28845;DHT22;15976;47.938;7.758;2024-03-23T11:06:35;11.30;60.70
28845;DHT22;15976;47.938;7.758;2024-03-23T11:09:01;11.70;59.90
28845;DHT22;15976;47.938;7.758;2024-03-23T11:11:29;12.10;59.20
28845;DHT22;15976;47.938;7.758;2024-03-23T11:13:59;12.50;58.10
28845;DHT22;15976;47.938;7.758;2024-03-23T11:16:29;12.80;57.60
28845;DHT22;15976;47.938;7.758;2024-03-23T11:19:35;12.90;57.10
28845;DHT22;15976;47.938;7.758;2024-03-23T11:22:02;12.90;57.00
28845;DHT22;15976;47.938;7.758;2024-03-23T11:24:29;13.00;56.90
28845;DHT22;15976;47.938;7.758;2024-03-23T11:26:56;12.90;56.50
28845;DHT22;15976;47.938;7.758;2024-03-23T11:29:22;13.00;56.80
28845;DHT22;15976;47.938;7.758;2024-03-23T11:31:50;13.00;56.80
28845;DHT22;15976;47.938;7.758;2024-03-23T11:34:20;12.90;57.10
28845;DHT22;15976;47.938;7.758;2024-03-23T11:36:47;12.90;57.00
28845;DHT22;15976;47.938;7.758;2024-03-23T11:39:17;12.80;57.10
28845;DHT22;15976;47.938;7.758;2024-03-23T11:41:50;12.80;57.20
28845;DHT22;15976;47.938;7.758;2024-03-23T11:44:22;12.80;57.40
28845;DHT22;15976;47.938;7.758;2024-03-23T11:46:49;12.80;57.10
28845;DHT22;15976;47.938;7.758;2024-03-23T11:49:23;12.70;56.80
28845;DHT22;15976;47.938;7.758;2024-03-23T11:51:50;12.60;56.70
28845;DHT22;15976;47.938;7.758;2024-03-23T11:54:25;12.60;56.60
28845;DHT22;15976;47.938;7.758;2024-03-23T11:56:58;12.70;56.30
28845;DHT22;15976;47.938;7.758;2024-03-23T11:59:38;13.00;56.20
28845;DHT22;15976;47.938;7.758;2024-03-23T12:02:13;13.40;55.60
28845;DHT22;15976;47.938;7.758;2024-03-23T12:04:42;13.50;54.10
28845;DHT22;15976;47.938;7.758;2024-03-23T12:07:13;13.40;54.20
28845;DHT22;15976;47.938;7.758;2024-03-23T12:09:40;13.40;54.00
28845;DHT22;15976;47.938;7.758;2024-03-23T12:12:24;13.20;53.70
28845;DHT22;15976;47.938;7.758;2024-03-23T12:15:20;13.00;54.00
28845;DHT22;15976;47.938;7.758;2024-03-23T12:17:47;12.90;54.20
28845;DHT22;15976;47.938;7.758;2024-03-23T12:20:13;12.80;54.10
28845;DHT22;15976;47.938;7.758;2024-03-23T12:22:39;12.60;53.70
28845;DHT22;15976;47.938;7.758;2024-03-23T12:25:05;12.50;53.70
28845;DHT22;15976;47.938;7.758;2024-03-23T12:27:34;12.50;54.10
28845;DHT22;15976;47.938;7.758;2024-03-23T12:30:00;12.40;54.10
28845;DHT22;15976;47.938;7.758;2024-03-23T12:32:28;12.20;54.30
28845;DHT22;15976;47.938;7.758;2024-03-23T12:34:54;12.20;54.40
28845;DHT22;15976;47.938;7.758;2024-03-23T12:37:20;12.30;54.60
28845;DHT22;15976;47.938;7.758;2024-03-23T12:39:46;12.50;54.20
28845;DHT22;15976;47.938;7.758;2024-03-23T12:42:12;12.80;53.90
28845;DHT22;15976;47.938;7.758;2024-03-23T12:44:38;13.10;53.80
28845;DHT22;15976;47.938;7.758;2024-03-23T12:47:05;13.40;53.10
28845;DHT22;15976;47.938;7.758;2024-03-23T12:49:31;13.70;52.60
28845;DHT22;15976;47.938;7.758;2024-03-23T12:51:58;14.00;52.00
28845;DHT22;15976;47.938;7.758;2024-03-23T12:54:25;14.20;51.50
28845;DHT22;15976;47.938;7.758;2024-03-23T12:56:52;14.40;51.20
28845;DHT22;15976;47.938;7.758;2024-03-23T12:59:18;14.40;51.00
28845;DHT22;15976;47.938;7.758;2024-03-23T13:01:45;14.50;50.80
28845;DHT22;15976;47.938;7.758;2024-03-23T13:04:12;14.50;49.90
28845;DHT22;15976;47.938;7.758;2024-03-23T13:06:39;14.10;49.20
28845;DHT22;15976;47.938;7.758;2024-03-23T13:09:05;13.90;49.80
28845;DHT22;15976;47.938;7.758;2024-03-23T13:11:31;13.60;47.50
28845;DHT22;15976;47.938;7.758;2024-03-23T13:13:57;13.50;47.90
28845;DHT22;15976;47.938;7.758;2024-03-23T13:16:23;13.80;48.00
28845;DHT22;15976;47.938;7.758;2024-03-23T13:18:51;14.00;46.60
28845;DHT22;15976;47.938;7.758;2024-03-23T13:21:19;14.10;45.50
28845;DHT22;15976;47.938;7.758;2024-03-23T13:23:48;14.10;45.60
28845;DHT22;15976;47.938;7.758;2024-03-23T13:26:16;15.00;46.60
28845;DHT22;15976;47.938;7.758;2024-03-23T13:28:43;16.70;44.90
28845;DHT22;15976;47.938;7.758;2024-03-23T13:31:12;18.70;42.00
28845;DHT22;15976;47.938;7.758;2024-03-23T13:33:41;20.50;39.10
28845;DHT22;15976;47.938;7.758;2024-03-23T13:36:09;21.70;35.50
28845;DHT22;15976;47.938;7.758;2024-03-23T13:38:37;22.00;33.40
28845;DHT22;15976;47.938;7.758;2024-03-23T13:41:04;22.00;32.50
28845;DHT22;15976;47.938;7.758;2024-03-23T13:43:33;22.50;31.90
28845;DHT22;15976;47.938;7.758;2024-03-23T13:45:59;23.10;31.30
28845;DHT22;15976;47.938;7.758;2024-03-23T13:48:27;23.40;28.10
28845;DHT22;15976;47.938;7.758;2024-03-23T13:51:00;23.50;28.30
28845;DHT22;15976;47.938;7.758;2024-03-23T13:53:31;23.80;28.00
28845;DHT22;15976;47.938;7.758;2024-03-23T13:55:58;24.20;26.60
28845;DHT22;15976;47.938;7.758;2024-03-23T13:58:24;23.40;26.40
28845;DHT22;15976;47.938;7.758;2024-03-23T14:00:56;22.00;28.00
28845;DHT22;15976;47.938;7.758;2024-03-23T14:03:23;20.80;29.20
28845;DHT22;15976;47.938;7.758;2024-03-23T14:05:49;20.20;29.30
28845;DHT22;15976;47.938;7.758;2024-03-23T14:08:15;19.30;30.00
28845;DHT22;15976;47.938;7.758;2024-03-23T14:10:42;18.30;31.80
28845;DHT22;15976;47.938;7.758;2024-03-23T14:13:08;17.50;33.10
28845;DHT22;15976;47.938;7.758;2024-03-23T14:15:34;16.80;34.20
28845;DHT22;15976;47.938;7.758;2024-03-23T14:18:02;16.30;35.50
28845;DHT22;15976;47.938;7.758;2024-03-23T14:20:29;15.90;36.20
28845;DHT22;15976;47.938;7.758;2024-03-23T14:22:55;15.50;36.80
28845;DHT22;15976;47.938;7.758;2024-03-23T14:25:22;15.30;37.20
28845;DHT22;15976;47.938;7.758;2024-03-23T14:27:53;15.00;37.20
28845;DHT22;15976;47.938;7.758;2024-03-23T14:30:20;14.70;38.00
28845;DHT22;15976;47.938;7.758;2024-03-23T14:32:48;14.40;38.80
28845;DHT22;15976;47.938;7.758;2024-03-23T14:35:14;14.10;39.20
28845;DHT22;15976;47.938;7.758;2024-03-23T14:37:41;13.80;39.50
28845;DHT22;15976;47.938;7.758;2024-03-23T14:40:08;13.60;40.20
28845;DHT22;15976;47.938;7.758;2024-03-23T14:42:34;13.40;40.60
28845;DHT22;15976;47.938;7.758;2024-03-23T14:45:00;13.30;41.40
28845;DHT22;15976;47.938;7.758;2024-03-23T14:47:26;13.20;42.20
28845;DHT22;15976;47.938;7.758;2024-03-23T14:49:52;13.20;43.60
28845;DHT22;15976;47.938;7.758;2024-03-23T14:52:19;13.00;44.50
28845;DHT22;15976;47.938;7.758;2024-03-23T14:54:46;13.00;45.30
28845;DHT22;15976;47.938;7.758;2024-03-23T14:57:12;13.50;45.50
28845;DHT22;15976;47.938;7.758;2024-03-23T14:59:39;14.30;43.80
28845;DHT22;15976;47.938;7.758;2024-03-23T15:02:09;14.40;43.00
28845;DHT22;15976;47.938;7.758;2024-03-23T15:04:37;14.20;42.50
28845;DHT22;15976;47.938;7.758;2024-03-23T15:07:04;13.90;43.00
28845;DHT22;15976;47.938;7.758;2024-03-23T15:09:31;13.70;43.50
28845;DHT22;15976;47.938;7.758;2024-03-23T15:11:58;13.60;44.00
28845;DHT22;15976;47.938;7.758;2024-03-23T15:14:24;13.60;44.50
28845;DHT22;15976;47.938;7.758;2024-03-23T15:16:50;13.70;44.90
28845;DHT22;15976;47.938;7.758;2024-03-23T15:19:17;13.90;44.90
28845;DHT22;15976;47.938;7.758;2024-03-23T15:21:43;14.00;44.90
28845;DHT22;15976;47.938;7.758;2024-03-23T15:24:11;14.20;44.70
28845;DHT22;15976;47.938;7.758;2024-03-23T15:26:38;14.30;44.50
28845;DHT22;15976;47.938;7.758;2024-03-23T15:29:05;14.20;43.80
28845;DHT22;15976;47.938;7.758;2024-03-23T15:31:42;13.90;44.50
28845;DHT22;15976;47.938;7.758;2024-03-23T15:34:08;13.80;45.10
28845;DHT22;15976;47.938;7.758;2024-03-23T15:36:37;13.70;44.70
28845;DHT22;15976;47.938;7.758;2024-03-23T15:39:07;13.40;45.00
28845;DHT22;15976;47.938;7.758;2024-03-23T15:41:34;13.20;45.30
28845;DHT22;15976;47.938;7.758;2024-03-23T15:44:01;13.00;45.60
28845;DHT22;15976;47.938;7.758;2024-03-23T15:46:27;12.90;45.80
28845;DHT22;15976;47.938;7.758;2024-03-23T15:48:55;12.90;46.00
28845;DHT22;15976;47.938;7.758;2024-03-23T15:51:24;12.90;45.80
28845;DHT22;15976;47.938;7.758;2024-03-23T15:53:55;12.80;45.10
28845;DHT22;15976;47.938;7.758;2024-03-23T15:56:23;12.60;45.10
28845;DHT22;15976;47.938;7.758;2024-03-23T15:58:49;12.50;45.10
28845;DHT22;15976;47.938;7.758;2024-03-23T16:01:15;12.30;45.50
28845;DHT22;15976;47.938;7.758;2024-03-23T16:03:41;12.20;47.00
28845;DHT22;15976;47.938;7.758;2024-03-23T16:06:08;11.80;50.40
28845;DHT22;15976;47.938;7.758;2024-03-23T16:08:40;11.30;53.90
28845;DHT22;15976;47.938;7.758;2024-03-23T16:11:07;11.00;55.60
28845;DHT22;15976;47.938;7.758;2024-03-23T16:13:40;10.70;56.80
28845;DHT22;15976;47.938;7.758;2024-03-23T16:16:07;10.60;58.10
28845;DHT22;15976;47.938;7.758;2024-03-23T16:18:34;10.40;59.00
28845;DHT22;15976;47.938;7.758;2024-03-23T16:21:03;10.30;59.40
28845;DHT22;15976;47.938;7.758;2024-03-23T16:23:31;10.30;59.20
28845;DHT22;15976;47.938;7.758;2024-03-23T16:25:57;10.30;59.60
28845;DHT22;15976;47.938;7.758;2024-03-23T16:28:24;10.40;59.40
28845;DHT22;15976;47.938;7.758;2024-03-23T16:31:04;10.50;59.00